Jamestwn, North Dakota
Current Conditions -  °F | °C
As of 6:56 AM on Wednesday 22 Oct 2014 (Local Time) from KJMS Reporting Station
Clear Clear  
Wind Chill: 57°   Ceiling: Unl
Heat Index: 57°   Visibility: 10mi
Dew Point: 40°   Wind: 20mph
Humidity: 53%   Direction: 180°S
Pressure: 29.77"   Gusts: NA
Location:  46.9109°N, 98.7082°W
Report Text: KJMS 221156Z AUTO 18017KT 10SM CLR 14/04 A2977 RMK AO2 SLP081 T01390044 10161 20133 52008
Loading
Personal Weather Stations






























Interactive Weather Map
Tropical Storm Tracking
New forecast layout! Learn more

10-Day Weather Forecast

Advertisements
Track Severe Weather on mobile